Time,TemperatureF,DewpointF,PressureIn,WindDirection,WindDirectionDegrees,WindSpeedMPH,WindSpeedGustMPH,Humidity,HourlyPrecipIn,Conditions,Clouds,dailyrainin,SoftwareType,DateUTC
2013-03-13 01:16:00,37.6,30.0,30.11,SW,221,0.0,-999.0,74,-99.99,,,0.00,weatherlink.com 1.10,2013-03-13 05:16:00,
2013-03-13 01:31:00,37.9,30.0,30.11,SW,221,0.0,-999.0,73,-99.99,,,0.00,weatherlink.com 1.10,2013-03-13 05:31:00,
2013-03-13 02:01:00,38.1,29.0,30.11,SW,221,0.0,-999.0,70,-99.99,,,0.00,weatherlink.com 1.10,2013-03-13 06:01:00,
2013-03-13 02:31:00,37.5,29.0,30.11,SW,221,0.0,-999.0,72,-99.99,,,0.00,weatherlink.com 1.10,2013-03-13 06:31:00,
2013-03-13 02:46:00,37.2,30.0,30.11,SW,221,0.0,-999.0,74,-99.99,,,0.00,weatherlink.com 1.10,2013-03-13 06:46:00,
2013-03-13 03:01:00,36.4,29.0,30.10,SW,221,0.0,-999.0,75,-99.99,,,0.00,weatherlink.com 1.10,2013-03-13 07:01:00,
2013-03-13 03:31:00,35.0,29.0,30.10,SW,221,0.0,-999.0,78,-99.99,,,0.00,weatherlink.com 1.10,2013-03-13 07:31:00,
2013-03-13 03:46:00,34.3,29.0,30.10,SW,221,0.0,-999.0,80,-99.99,,,0.00,weatherlink.com 1.10,2013-03-13 07:46:00,
2013-03-13 04:01:00,33.9,29.0,30.09,SW,221,0.0,-999.0,81,-99.99,,,0.00,weatherlink.com 1.10,2013-03-13 08:01:00,
2013-03-13 04:31:00,35.3,29.0,30.09,SW,221,0.0,-999.0,78,-99.99,,,0.00,weatherlink.com 1.10,2013-03-13 08:31:00,
2013-03-13 05:01:00,36.1,29.0,30.08,SW,221,0.0,-999.0,75,-99.99,,,0.00,weatherlink.com 1.10,2013-03-13 09:01:00,
2013-03-13 05:31:00,36.5,29.0,30.08,SW,225,0.0,-999.0,75,-99.99,,,0.00,weatherlink.com 1.10,2013-03-13 09:31:00,
2013-03-13 05:46:00,36.4,30.0,30.09,SW,225,0.0,-999.0,76,-99.99,,,0.00,weatherlink.com 1.10,2013-03-13 09:46:00,
2013-03-13 06:01:00,36.1,30.0,30.09,SW,225,0.0,-999.0,77,-99.99,,,0.00,weatherlink.com 1.10,2013-03-13 10:01:00,
2013-03-13 06:16:00,36.1,30.0,30.10,SW,225,1.0,-999.0,78,-99.99,,,0.00,weatherlink.com 1.10,2013-03-13 10:16:00,
2013-03-13 06:31:00,35.9,30.0,30.11,SW,225,0.0,-999.0,79,-99.99,,,0.00,weatherlink.com 1.10,2013-03-13 10:31:00,
2013-03-13 06:46:00,35.8,30.0,30.11,SW,225,0.0,-999.0,80,-99.99,,,0.00,weatherlink.com 1.10,2013-03-13 10:46:00,
2013-03-13 07:01:00,35.5,30.0,30.11,SW,225,0.0,-999.0,80,-99.99,,,0.00,weatherlink.com 1.10,2013-03-13 11:01:00,
2013-03-13 07:16:00,35.2,30.0,30.11,SW,225,0.0,-999.0,80,-99.99,,,0.00,weatherlink.com 1.10,2013-03-13 11:16:00,
2013-03-13 07:31:00,35.1,30.0,30.12,SW,225,0.0,-999.0,80,-99.99,,,0.00,weatherlink.com 1.10,2013-03-13 11:31:00,
2013-03-13 07:46:00,35.1,30.0,30.12,SW,225,0.0,-999.0,80,-99.99,,,0.00,weatherlink.com 1.10,2013-03-13 11:46:00,
2013-03-13 08:01:00,35.1,30.0,30.13,SW,225,0.0,-999.0,80,-99.99,,,0.00,weatherlink.com 1.10,2013-03-13 12:01:00,
2013-03-13 08:16:00,35.5,30.0,30.14,NW,315,1.0,-999.0,80,-99.99,,,0.00,weatherlink.com 1.10,2013-03-13 12:16:00,
2013-03-13 08:31:00,36.2,29.0,30.15,NNW,343,5.0,-999.0,76,-99.99,,,0.00,weatherlink.com 1.10,2013-03-13 12:31:00,
2013-03-13 08:46:00,36.1,28.0,30.15,West,263,1.0,-999.0,73,-99.99,,,0.00,weatherlink.com 1.10,2013-03-13 12:46:00,
2013-03-13 09:01:00,37.5,27.0,30.16,West,273,1.0,-999.0,65,-99.99,,,0.00,weatherlink.com 1.10,2013-03-13 13:01:00,
2013-03-13 09:16:00,38.3,26.0,30.17,WSW,246,1.0,-999.0,62,-99.99,,,0.00,weatherlink.com 1.10,2013-03-13 13:16:00,
2013-03-13 09:46:00,39.6,27.0,30.18,North,349,2.0,-999.0,60,-99.99,,,0.00,weatherlink.com 1.10,2013-03-13 13:46:00,
2013-03-13 10:01:00,38.9,26.0,30.19,NW,325,0.0,-999.0,60,-99.99,,,0.00,weatherlink.com 1.10,2013-03-13 14:01:00,
2013-03-13 10:31:00,39.3,26.0,30.20,SW,232,4.0,-999.0,59,-99.99,,,0.00,weatherlink.com 1.10,2013-03-13 14:31:00,
2013-03-13 10:46:00,39.8,25.0,30.19,WSW,258,5.0,-999.0,55,-99.99,,,0.00,weatherlink.com 1.10,2013-03-13 14:46:00,
2013-03-13 11:16:00,40.5,25.0,30.20,West,275,3.0,-999.0,54,-99.99,,,0.00,weatherlink.com 1.10,2013-03-13 15:16:00,
2013-03-13 11:31:00,40.6,24.0,30.20,NNW,329,4.0,-999.0,53,-99.99,,,0.00,weatherlink.com 1.10,2013-03-13 15:31:00,
2013-03-13 11:46:00,40.7,24.0,30.21,North,355,5.0,-999.0,52,-99.99,,,0.00,weatherlink.com 1.10,2013-03-13 15:46:00,
2013-03-13 12:01:00,40.4,25.0,30.21,NW,319,5.0,-999.0,55,-99.99,,,0.00,weatherlink.com 1.10,2013-03-13 16:01:00,
2013-03-13 12:17:00,41.8,25.0,30.21,West,274,1.0,-999.0,52,-99.99,,,0.00,weatherlink.com 1.10,2013-03-13 16:17:00,
2013-03-13 12:32:00,41.6,25.0,30.21,West,266,2.0,-999.0,53,-99.99,,,0.00,weatherlink.com 1.10,2013-03-13 16:32:00,
2013-03-13 12:46:00,41.2,26.0,30.21,West,261,1.0,-999.0,55,-99.99,,,0.00,weatherlink.com 1.10,2013-03-13 16:46:00,
2013-03-13 13:17:00,41.4,26.0,30.21,NW,313,4.0,-999.0,54,-99.99,,,0.00,weatherlink.com 1.10,2013-03-13 17:17:00,
2013-03-13 13:32:00,41.1,25.0,30.22,West,279,3.0,-999.0,54,-99.99,,,0.00,weatherlink.com 1.10,2013-03-13 17:32:00,
2013-03-13 13:47:00,41.6,24.0,30.21,SW,227,1.0,-999.0,49,-99.99,,,0.00,weatherlink.com 1.10,2013-03-13 17:47:00,
2013-03-13 14:02:00,41.5,23.0,30.21,WSW,250,3.0,-999.0,49,-99.99,,,0.00,weatherlink.com 1.10,2013-03-13 18:02:00,
2013-03-13 14:16:00,42.2,25.0,30.21,NW,304,4.0,-999.0,50,-99.99,,,0.00,weatherlink.com 1.10,2013-03-13 18:16:00,
2013-03-13 15:16:00,44.4,25.0,30.20,West,276,1.0,-999.0,46,-99.99,,,0.00,weatherlink.com 1.10,2013-03-13 19:16:00,
2013-03-13 15:46:00,43.2,25.0,30.21,West,272,5.0,-999.0,48,-99.99,,,0.00,weatherlink.com 1.10,2013-03-13 19:46:00,
2013-03-13 16:01:00,42.3,24.0,30.21,NW,313,0.0,-999.0,48,-99.99,,,0.00,weatherlink.com 1.10,2013-03-13 20:01:00,
2013-03-13 16:16:00,41.3,23.0,30.22,WNW,298,4.0,-999.0,49,-99.99,,,0.00,weatherlink.com 1.10,2013-03-13 20:16:00,
2013-03-13 16:31:00,41.6,23.0,30.22,West,263,2.0,-999.0,48,-99.99,,,0.00,weatherlink.com 1.10,2013-03-13 20:31:00,
2013-03-13 16:46:00,42.2,24.0,30.22,SW,235,2.0,-999.0,48,-99.99,,,0.00,weatherlink.com 1.10,2013-03-13 20:46:00,
2013-03-13 17:01:00,42.5,24.0,30.23,NW,312,4.0,-999.0,48,-99.99,,,0.00,weatherlink.com 1.10,2013-03-13 21:01:00,
2013-03-13 17:16:00,42.1,22.0,30.23,NW,322,0.0,-999.0,45,-99.99,,,0.00,weatherlink.com 1.10,2013-03-13 21:16:00,
2013-03-13 17:31:00,41.3,23.0,30.24,SW,217,0.0,-999.0,49,-99.99,,,0.00,weatherlink.com 1.10,2013-03-13 21:31:00,
2013-03-13 17:46:00,40.6,23.0,30.25,WNW,299,0.0,-999.0,50,-99.99,,,0.00,weatherlink.com 1.10,2013-03-13 21:46:00,
2013-03-13 18:01:00,40.2,23.0,30.25,NNW,342,2.0,-999.0,51,-99.99,,,0.00,weatherlink.com 1.10,2013-03-13 22:01:00,
2013-03-13 18:16:00,39.7,23.0,30.25,NW,323,0.0,-999.0,52,-99.99,,,0.00,weatherlink.com 1.10,2013-03-13 22:16:00,
2013-03-13 18:31:00,39.4,22.0,30.26,WSW,247,0.0,-999.0,50,-99.99,,,0.00,weatherlink.com 1.10,2013-03-13 22:31:00,
2013-03-13 18:47:00,38.7,23.0,30.27,NW,320,4.0,-999.0,53,-99.99,,,0.00,weatherlink.com 1.10,2013-03-13 22:47:00,
2013-03-13 19:01:00,38.0,23.0,30.28,NW,320,1.0,-999.0,54,-99.99,,,0.00,weatherlink.com 1.10,2013-03-13 23:01:00,
2013-03-13 19:16:00,37.4,23.0,30.29,WNW,292,0.0,-999.0,57,-99.99,,,0.00,weatherlink.com 1.10,2013-03-13 23:16:00,
2013-03-13 19:31:00,37.1,22.0,30.29,NW,323,0.0,-999.0,55,-99.99,,,0.00,weatherlink.com 1.10,2013-03-13 23:31:00,
2013-03-13 19:46:00,36.7,24.0,30.29,WNW,296,0.0,-999.0,61,-99.99,,,0.00,weatherlink.com 1.10,2013-03-13 23:46:00,
2013-03-13 20:01:00,36.2,22.0,30.30,WNW,293,0.0,-999.0,56,-99.99,,,0.00,weatherlink.com 1.10,2013-03-14 00:01:00,
2013-03-13 20:31:00,35.2,21.0,30.31,NW,321,0.0,-999.0,56,-99.99,,,0.00,weatherlink.com 1.10,2013-03-14 00:31:00,
2013-03-13 20:47:00,34.8,21.0,30.31,South,185,1.0,-999.0,58,-99.99,,,0.00,weatherlink.com 1.10,2013-03-14 00:47:00,
2013-03-13 21:01:00,34.3,21.0,30.31,NW,311,0.0,-999.0,59,-99.99,,,0.00,weatherlink.com 1.10,2013-03-14 01:01:00,
2013-03-13 21:16:00,33.9,22.0,30.32,NNW,344,4.0,-999.0,61,-99.99,,,0.00,weatherlink.com 1.10,2013-03-14 01:16:00,
2013-03-13 21:31:00,33.9,21.0,30.32,WNW,294,2.0,-999.0,60,-99.99,,,0.00,weatherlink.com 1.10,2013-03-14 01:31:00,
2013-03-13 21:46:00,33.7,21.0,30.32,NNW,331,1.0,-999.0,59,-99.99,,,0.00,weatherlink.com 1.10,2013-03-14 01:46:00,
2013-03-13 22:01:00,33.7,21.0,30.33,NW,310,0.0,-999.0,61,-99.99,,,0.00,weatherlink.com 1.10,2013-03-14 02:01:00,
2013-03-13 22:16:00,33.5,21.0,30.33,North,5,5.0,-999.0,61,-99.99,,,0.00,weatherlink.com 1.10,2013-03-14 02:16:00,
2013-03-13 22:32:00,33.0,20.0,30.33,NW,305,0.0,-999.0,60,-99.99,,,0.00,weatherlink.com 1.10,2013-03-14 02:32:00,
2013-03-13 22:46:00,32.3,20.0,30.34,WSW,253,1.0,-999.0,62,-99.99,,,0.00,weatherlink.com 1.10,2013-03-14 02:46:00,
2013-03-13 23:01:00,31.6,20.0,30.34,NNW,345,2.0,-999.0,63,-99.99,,,0.00,weatherlink.com 1.10,2013-03-14 03:01:00,
2013-03-13 23:17:00,31.2,20.0,30.34,NNE,19,0.0,-999.0,63,-99.99,,,0.00,weatherlink.com 1.10,2013-03-14 03:17:00,
2013-03-13 23:32:00,31.1,20.0,30.34,SE,130,1.0,-999.0,63,-99.99,,,0.00,weatherlink.com 1.10,2013-03-14 03:32:00,
2013-03-13 23:47:00,31.0,20.0,30.34,WSW,255,3.0,-999.0,64,-99.99,,,0.00,weatherlink.com 1.10,2013-03-14 03:47:00,